KELK/ELK METAR and TAF weather

Enter ICAO airport designator
Station Type Date Time Source
KELK METAR 2022/06/30 01:35 UTC NOAA

KELK 300135Z AUTO 15008KT 10SM CLR 29/12 A3014 RMK AO2 T02890118


Station Type Date Time Source
KELK Decoded METAR 2022/06/30 01:35 UTC NOAA

Station name not available
Jun 29, 2022 - 09:35 PM EDT / 2022.06.30 0135 UTC
Wind: from the SSE (150 degrees) at 9 MPH (8 KT):0
Visibility: 10 mile(s):0
Sky conditions: clear
Temperature: 84.0 F (28.9 C)
Dew Point: 53.2 F (11.8 C)
Relative Humidity: 34%
Pressure (altimeter): 30.14 in. Hg (1020 hPa)
ob: KELK 300135Z AUTO 15008KT 10SM CLR 29/12 A3014 RMK AO2 T02890118
cycle: 1

Station Type Date Time Source
KELK TAF UTC NOAA

Error!

Example: see airport list